Mexican Hat, Utah
Current Conditions -  °F | °C
As of 2:15 PM on Friday 24 Oct 2014 (Local Time) from KBDG Reporting Station
Clear Clear  
Wind Chill: 71°   Ceiling: Unl
Heat Index: 71°   Visibility: 10mi
Dew Point: 32°   Wind: 7mph
Humidity: 24%   Direction: 160°SSE
Pressure: 30.38"   Gusts: NA
Location:  37.15°N, 109.86°W
Report Text: KBDG 242015Z AUTO 16006KT 10SM CLR 21/00 A3038 RMK AO1 T02140001
Loading
Personal Weather Stations






























Interactive Weather Map
Tropical Storm Tracking
New forecast layout! Learn more

10-Day Weather Forecast

Advertisements
Track Severe Weather on mobile